Maria — SV7156 — position and weather

sailwx.info

Track history (hours):
 
Tides and Currents Weather Stations Pressure Air Temp Water Temp Dewpoint Dewpoint Depression Visibility Wind Speed Wind Dir Waves Ship Positions

Maria

Last reported at 2017-Aug-19 03:32 UTC. Time now 2017-Aug-19 05:32 UTC.
Position N 37°55' E 023°11'.

Length 74 m; draft 4.5 m.

Type: Ship. MMSI: 237493000.

Date/timePositionNaut miles runAvg speedWind from/ knotsBaromVisibWave heightAir tempDewpointWater temp
2017-Aug-19 03:32N 37°55' E 023°11'2 8.2
2017-Aug-19 03:20N 37°54' E 023°13'3 8.1
2017-Aug-19 03:00N 37°54' E 023°16'4 8.0
2017-Aug-19 02:30N 37°53' E 023°21'4 8.1
2017-Aug-19 02:00N 37°52' E 023°26'4 7.7
2017-Aug-19 01:30N 37°53' E 023°30'4 8.1
2017-Aug-19 01:00N 37°56' E 023°34'1 2.4
2017-Aug-19 00:30N 37°57' E 023°35'0 0.0
2017-Aug-19 00:00N 37°57' E 023°35'0 0.0
2017-Aug-18 23:30N 37°57' E 023°35'0 0.0
2017-Aug-18 23:00N 37°57' E 023°35'0 0.0
2017-Aug-18 22:30N 37°57' E 023°35'0 0.0
2017-Aug-18 22:00N 37°57' E 023°35'0 0.0
2017-Aug-18 21:30N 37°57' E 023°35'0 0.0
2017-Aug-18 21:00N 37°57' E 023°35'0 0.0
2017-Aug-18 20:30N 37°57' E 023°35'0 0.7
2017-Aug-18 20:00N 37°58' E 023°35'0 0.0
2017-Aug-18 19:30N 37°58' E 023°35'0 0.0
2017-Aug-18 12:05N 37°58' E 023°35'0 0.3
2017-Aug-18 12:00N 37°58' E 023°35'3 5.5
2017-Aug-18 11:30N 37°55' E 023°33'4 7.0
2017-Aug-18 11:00N 37°53' E 023°30'4 7.1
2017-Aug-18 10:30N 37°52' E 023°25'4 7.7
2017-Aug-18 10:00N 37°53' E 023°20'5 7.8
2017-Aug-18 09:19N 37°54' E 023°14'3 8.0
2017-Aug-18 08:57N 37°54' E 023°10'1 0.1
2017-Aug-17 18:40N 37°54' E 023°11'4 8.3
2017-Aug-17 18:12N 37°54' E 023°16'2 8.3
2017-Aug-17 18:00N 37°53' E 023°18'4 8.3
2017-Aug-17 17:30N 37°52' E 023°23'4 8.2
2017-Aug-17 17:00N 37°51' E 023°29'2 5.0
2017-Aug-17 16:30N 37°51' E 023°32'0 0.0
2017-Aug-17 16:00N 37°51' E 023°32'0 0.0
2017-Aug-17 15:30N 37°51' E 023°32'0 0.0
2017-Aug-17 15:00N 37°51' E 023°32'0 0.0
2017-Aug-17 14:30N 37°51' E 023°32'0 0.1
2017-Aug-17 14:00N 37°51' E 023°32'0 0.0
2017-Aug-17 13:30N 37°51' E 023°32'0 0.0
2017-Aug-17 13:00N 37°51' E 023°32'0 0.0
2017-Aug-17 12:30N 37°51' E 023°32'0 0.0
2017-Aug-17 12:00N 37°51' E 023°32'0 0.1
2017-Aug-17 11:30N 37°51' E 023°32'0 0.0
2017-Aug-17 11:00N 37°51' E 023°32'0 0.0
2017-Aug-17 10:30N 37°51' E 023°32'0 0.0
2017-Aug-17 10:00N 37°51' E 023°32'0 0.0
2017-Aug-17 09:30N 37°51' E 023°32'2 3.5
2017-Aug-17 09:00N 37°52' E 023°32'4 8.5
2017-Aug-17 08:30N 37°56' E 023°35'1 2.8
2017-Aug-17 08:00N 37°58' E 023°35'0 0.0
2017-Aug-17 07:30N 37°58' E 023°35'  
2017-Aug-14 16:59N 37°58' E 023°35'1 1.2
2017-Aug-14 16:30N 37°57' E 023°35'0 0.0
2017-Aug-14 16:00N 37°57' E 023°35'0 0.0
2017-Aug-14 15:30N 37°57' E 023°35'0 0.0
2017-Aug-14 15:00N 37°57' E 023°35'0 0.0
2017-Aug-14 14:30N 37°57' E 023°35'0 0.0
2017-Aug-14 14:00N 37°57' E 023°35'0 0.0
2017-Aug-14 13:30N 37°57' E 023°35'0 0.0
2017-Aug-14 13:00N 37°57' E 023°35'0 0.0
2017-Aug-14 12:30N 37°57' E 023°35'0 0.0
2017-Aug-14 12:00N 37°57' E 023°35'0 0.0
2017-Aug-14 11:30N 37°57' E 023°35'0 0.2
2017-Aug-14 11:00N 37°57' E 023°35'1 1.1
2017-Aug-14 10:30N 37°58' E 023°35'0 0.0
2017-Aug-12 06:42N 37°58' E 023°35'0 1.4
2017-Aug-12 06:30N 37°57' E 023°34'3 5.3
2017-Aug-12 06:00N 37°55' E 023°33'4 7.4
2017-Aug-12 05:30N 37°53' E 023°29'3 6.9
2017-Aug-12 05:00N 37°52' E 023°25'4 7.5
2017-Aug-12 04:30N 37°53' E 023°20'4 7.7
2017-Aug-12 04:00N 37°53' E 023°15'4 7.6
2017-Aug-12 03:30N 37°54' E 023°11'2 0.2
2017-Aug-11 19:51N 37°54' E 023°13'3 8.4
2017-Aug-11 19:30N 37°54' E 023°16'4 8.1
2017-Aug-11 19:00N 37°53' E 023°21'4 8.0
2017-Aug-11 18:30N 37°52' E 023°26'4 8.0
2017-Aug-11 18:00N 37°53' E 023°31'4 8.2
2017-Aug-11 17:31N 37°56' E 023°34'2 3.1
2017-Aug-11 17:00N 37°57' E 023°36'0 0.0
2017-Aug-11 16:30N 37°57' E 023°36'0 0.0
2017-Aug-11 16:01N 37°57' E 023°36'0 0.0
2017-Aug-11 15:30N 37°57' E 023°36'0 0.0
2017-Aug-11 15:00N 37°57' E 023°36'0 0.0
2017-Aug-11 14:00N 37°57' E 023°36'0 0.0
2017-Aug-11 13:30N 37°57' E 023°36'0 0.0
2017-Aug-11 13:00N 37°57' E 023°36'0 0.0
2017-Aug-11 12:30N 37°57' E 023°36'0 0.0
2017-Aug-11 12:00N 37°57' E 023°36'0 0.3
2017-Aug-11 11:30N 37°57' E 023°36'0 0.0
2017-Aug-11 11:00N 37°57' E 023°36'0 0.0
2017-Aug-11 10:30N 37°57' E 023°36'0 0.0
2017-Aug-11 10:01N 37°57' E 023°36'0 0.0
2017-Aug-11 09:30N 37°57' E 023°36'0 0.0
2017-Aug-11 09:00N 37°57' E 023°36'0 0.0
2017-Aug-11 08:30N 37°57' E 023°36'0 0.0
2017-Aug-11 08:00N 37°57' E 023°36'1 2.1
2017-Aug-11 07:30N 37°58' E 023°35'0 0.0
2017-Aug-10 15:24N 37°58' E 023°35'2 4.9
2017-Aug-10 15:00N 37°56' E 023°34'3 7.0
2017-Aug-10 14:30N 37°53' E 023°31'2 3.1
2017-Aug-10 14:01N 37°52' E 023°30'0 0.0
2017-Aug-10 13:31N 37°52' E 023°30'0 0.0
2017-Aug-10 13:00N 37°52' E 023°30'0 0.1
2017-Aug-10 12:30N 37°52' E 023°30'0 0.1
2017-Aug-10 12:01N 37°52' E 023°30'0 0.1
2017-Aug-10 11:30N 37°52' E 023°30'0 0.1
2017-Aug-10 11:00N 37°52' E 023°30'0 0.1
2017-Aug-10 10:30N 37°52' E 023°30'0 0.1
2017-Aug-10 10:01N 37°52' E 023°30'0 0.0
2017-Aug-10 09:31N 37°52' E 023°30'0 0.1
2017-Aug-10 09:01N 37°52' E 023°30'0 0.0
2017-Aug-10 08:31N 37°52' E 023°30'0 0.0
2017-Aug-10 08:01N 37°52' E 023°30'1 1.7
2017-Aug-10 07:31N 37°53' E 023°31'4 8.0
2017-Aug-10 07:00N 37°56' E 023°34'2 4.2
2017-Aug-10 06:31N 37°58' E 023°35'0 0.0
2017-Aug-10 06:01N 37°58' E 023°35'0 0.0
2017-Aug-10 05:30N 37°58' E 023°35'1 1.9
2017-Aug-10 05:01N 37°57' E 023°33'3 6.8
2017-Aug-10 04:31N 38°01' E 023°34'1 2.0
2017-Aug-10 04:00N 38°01' E 023°35'0 0.0
2017-Aug-10 03:30N 38°01' E 023°35'0 0.0
2017-Aug-10 03:00N 38°01' E 023°35'0 0.0
2017-Aug-10 02:30N 38°01' E 023°35'1 1.5
2017-Aug-10 02:01N 38°02' E 023°36'0 0.2
2017-Aug-10 01:30N 38°02' E 023°36'0 0.0
2017-Aug-10 01:00N 38°02' E 023°36'0 0.0
2017-Aug-10 00:30N 38°02' E 023°36'0 0.0
2017-Aug-10 00:00N 38°02' E 023°36'0 0.0
2017-Aug-09 23:30N 38°02' E 023°36'0 0.0
2017-Aug-09 23:00N 38°02' E 023°36'0 0.0
2017-Aug-09 22:30N 38°02' E 023°36'1 1.1
2017-Aug-09 22:00N 38°02' E 023°35'0 0.2
2017-Aug-09 21:30N 38°02' E 023°35'0 0.0
2017-Aug-09 21:00N 38°02' E 023°35'0 0.0
2017-Aug-09 20:31N 38°02' E 023°35'0 0.0
2017-Aug-09 20:00N 38°02' E 023°35'0 0.0
2017-Aug-09 19:30N 38°02' E 023°35'0 0.0
2017-Aug-09 19:01N 38°02' E 023°35'0 0.0
2017-Aug-09 18:30N 38°02' E 023°35'0 0.0
2017-Aug-09 18:01N 38°02' E 023°35'0 0.0
2017-Aug-09 17:30N 38°02' E 023°35'0 0.0
2017-Aug-09 17:00N 38°02' E 023°35'0 0.0
2017-Aug-09 16:30N 38°02' E 023°35'0 0.0
2017-Aug-09 16:00N 38°02' E 023°35'0 0.0
2017-Aug-09 15:29N 38°02' E 023°35'0 0.0
2017-Aug-09 14:59N 38°02' E 023°35'0 0.0
2017-Aug-09 14:30N 38°02' E 023°35'0 0.0
2017-Aug-09 14:00N 38°02' E 023°35'0 0.0
2017-Aug-09 13:30N 38°02' E 023°35'0 0.0
2017-Aug-09 13:00N 38°02' E 023°35'0 0.0
2017-Aug-09 12:30N 38°02' E 023°35'0 0.0
2017-Aug-09 12:00N 38°02' E 023°35'0 0.0
2017-Aug-09 11:30N 38°02' E 023°35'1 2.9
2017-Aug-09 11:00N 38°01' E 023°34'3 6.6
2017-Aug-09 10:30N 37°57' E 023°33'1 2.0
2017-Aug-09 10:00N 37°58' E 023°35'0 0.0
2017-Aug-09 09:30N 37°58' E 023°35'0 0.0
2017-Aug-09 09:01N 37°58' E 023°35'0 0.0
2017-Aug-09 08:30N 37°58' E 023°35'0 0.0
2017-Aug-09 08:01N 37°58' E 023°35'0 0.0
2017-Aug-09 07:30N 37°58' E 023°35'0 0.0
2017-Aug-09 07:01N 37°58' E 023°35'0 0.0
2017-Aug-09 06:31N 37°58' E 023°35'0 0.0
2017-Aug-09 06:00N 37°58' E 023°35'0 0.1
2017-Aug-09 05:31N 37°58' E 023°35'  
Track history (hours):
 
Tides and Currents Weather Stations Pressure Air Temp Water Temp Dewpoint Dewpoint Depression Visibility Wind Speed Wind Dir Waves Ship Positions

Maria

Last reported at 2017-Aug-19 03:32 UTC. Time now 2017-Aug-19 05:32 UTC.
Position N 37°55' E 023°11'.

Length 74 m; draft 4.5 m.

Type: Ship. MMSI: 237493000.

Date/timePositionNaut miles runAvg speedWind from/ knotsBaromVisibWave heightAir tempDewpointWater temp
2017-Aug-19 03:32N 37°55' E 023°11'2 8.2
2017-Aug-19 03:20N 37°54' E 023°13'3 8.1
2017-Aug-19 03:00N 37°54' E 023°16'4 8.0
2017-Aug-19 02:30N 37°53' E 023°21'4 8.1
2017-Aug-19 02:00N 37°52' E 023°26'4 7.7
2017-Aug-19 01:30N 37°53' E 023°30'4 8.1
2017-Aug-19 01:00N 37°56' E 023°34'1 2.4
2017-Aug-19 00:30N 37°57' E 023°35'0 0.0
2017-Aug-19 00:00N 37°57' E 023°35'0 0.0
2017-Aug-18 23:30N 37°57' E 023°35'0 0.0
2017-Aug-18 23:00N 37°57' E 023°35'0 0.0
2017-Aug-18 22:30N 37°57' E 023°35'0 0.0
2017-Aug-18 22:00N 37°57' E 023°35'0 0.0
2017-Aug-18 21:30N 37°57' E 023°35'0 0.0
2017-Aug-18 21:00N 37°57' E 023°35'0 0.0
2017-Aug-18 20:30N 37°57' E 023°35'0 0.7
2017-Aug-18 20:00N 37°58' E 023°35'0 0.0
2017-Aug-18 19:30N 37°58' E 023°35'0 0.0
2017-Aug-18 12:05N 37°58' E 023°35'0 0.3
2017-Aug-18 12:00N 37°58' E 023°35'3 5.5
2017-Aug-18 11:30N 37°55' E 023°33'4 7.0
2017-Aug-18 11:00N 37°53' E 023°30'4 7.1
2017-Aug-18 10:30N 37°52' E 023°25'4 7.7
2017-Aug-18 10:00N 37°53' E 023°20'5 7.8
2017-Aug-18 09:19N 37°54' E 023°14'3 8.0
2017-Aug-18 08:57N 37°54' E 023°10'1 0.1
2017-Aug-17 18:40N 37°54' E 023°11'4 8.3
2017-Aug-17 18:12N 37°54' E 023°16'2 8.3
2017-Aug-17 18:00N 37°53' E 023°18'4 8.3
2017-Aug-17 17:30N 37°52' E 023°23'4 8.2
2017-Aug-17 17:00N 37°51' E 023°29'2 5.0
2017-Aug-17 16:30N 37°51' E 023°32'0 0.0
2017-Aug-17 16:00N 37°51' E 023°32'0 0.0
2017-Aug-17 15:30N 37°51' E 023°32'0 0.0
2017-Aug-17 15:00N 37°51' E 023°32'0 0.0
2017-Aug-17 14:30N 37°51' E 023°32'0 0.1
2017-Aug-17 14:00N 37°51' E 023°32'0 0.0
2017-Aug-17 13:30N 37°51' E 023°32'0 0.0
2017-Aug-17 13:00N 37°51' E 023°32'0 0.0
2017-Aug-17 12:30N 37°51' E 023°32'0 0.0
2017-Aug-17 12:00N 37°51' E 023°32'0 0.1
2017-Aug-17 11:30N 37°51' E 023°32'0 0.0
2017-Aug-17 11:00N 37°51' E 023°32'0 0.0
2017-Aug-17 10:30N 37°51' E 023°32'0 0.0
2017-Aug-17 10:00N 37°51' E 023°32'0 0.0
2017-Aug-17 09:30N 37°51' E 023°32'2 3.5
2017-Aug-17 09:00N 37°52' E 023°32'4 8.5
2017-Aug-17 08:30N 37°56' E 023°35'1 2.8
2017-Aug-17 08:00N 37°58' E 023°35'0 0.0
2017-Aug-17 07:30N 37°58' E 023°35'  
2017-Aug-14 16:59N 37°58' E 023°35'1 1.2
2017-Aug-14 16:30N 37°57' E 023°35'0 0.0
2017-Aug-14 16:00N 37°57' E 023°35'0 0.0
2017-Aug-14 15:30N 37°57' E 023°35'0 0.0
2017-Aug-14 15:00N 37°57' E 023°35'0 0.0
2017-Aug-14 14:30N 37°57' E 023°35'0 0.0
2017-Aug-14 14:00N 37°57' E 023°35'0 0.0
2017-Aug-14 13:30N 37°57' E 023°35'0 0.0
2017-Aug-14 13:00N 37°57' E 023°35'0 0.0
2017-Aug-14 12:30N 37°57' E 023°35'0 0.0
2017-Aug-14 12:00N 37°57' E 023°35'0 0.0
2017-Aug-14 11:30N 37°57' E 023°35'0 0.2
2017-Aug-14 11:00N 37°57' E 023°35'1 1.1
2017-Aug-14 10:30N 37°58' E 023°35'0 0.0
2017-Aug-12 06:42N 37°58' E 023°35'0 1.4
2017-Aug-12 06:30N 37°57' E 023°34'3 5.3
2017-Aug-12 06:00N 37°55' E 023°33'4 7.4
2017-Aug-12 05:30N 37°53' E 023°29'3 6.9
2017-Aug-12 05:00N 37°52' E 023°25'4 7.5
2017-Aug-12 04:30N 37°53' E 023°20'4 7.7
2017-Aug-12 04:00N 37°53' E 023°15'4 7.6
2017-Aug-12 03:30N 37°54' E 023°11'2 0.2
2017-Aug-11 19:51N 37°54' E 023°13'3 8.4
2017-Aug-11 19:30N 37°54' E 023°16'4 8.1
2017-Aug-11 19:00N 37°53' E 023°21'4 8.0
2017-Aug-11 18:30N 37°52' E 023°26'4 8.0
2017-Aug-11 18:00N 37°53' E 023°31'4 8.2
2017-Aug-11 17:31N 37°56' E 023°34'2 3.1
2017-Aug-11 17:00N 37°57' E 023°36'0 0.0
2017-Aug-11 16:30N 37°57' E 023°36'0 0.0
2017-Aug-11 16:01N 37°57' E 023°36'0 0.0
2017-Aug-11 15:30N 37°57' E 023°36'0 0.0
2017-Aug-11 15:00N 37°57' E 023°36'0 0.0
2017-Aug-11 14:00N 37°57' E 023°36'0 0.0
2017-Aug-11 13:30N 37°57' E 023°36'0 0.0
2017-Aug-11 13:00N 37°57' E 023°36'0 0.0
2017-Aug-11 12:30N 37°57' E 023°36'0 0.0
2017-Aug-11 12:00N 37°57' E 023°36'0 0.3
2017-Aug-11 11:30N 37°57' E 023°36'0 0.0
2017-Aug-11 11:00N 37°57' E 023°36'0 0.0
2017-Aug-11 10:30N 37°57' E 023°36'0 0.0
2017-Aug-11 10:01N 37°57' E 023°36'0 0.0
2017-Aug-11 09:30N 37°57' E 023°36'0 0.0
2017-Aug-11 09:00N 37°57' E 023°36'0 0.0
2017-Aug-11 08:30N 37°57' E 023°36'0 0.0
2017-Aug-11 08:00N 37°57' E 023°36'1 2.1
2017-Aug-11 07:30N 37°58' E 023°35'0 0.0
2017-Aug-10 15:24N 37°58' E 023°35'2 4.9
2017-Aug-10 15:00N 37°56' E 023°34'3 7.0
2017-Aug-10 14:30N 37°53' E 023°31'2 3.1
2017-Aug-10 14:01N 37°52' E 023°30'0 0.0
2017-Aug-10 13:31N 37°52' E 023°30'0 0.0
2017-Aug-10 13:00N 37°52' E 023°30'0 0.1
2017-Aug-10 12:30N 37°52' E 023°30'0 0.1
2017-Aug-10 12:01N 37°52' E 023°30'0 0.1
2017-Aug-10 11:30N 37°52' E 023°30'0 0.1
2017-Aug-10 11:00N 37°52' E 023°30'0 0.1
2017-Aug-10 10:30N 37°52' E 023°30'0 0.1
2017-Aug-10 10:01N 37°52' E 023°30'0 0.0
2017-Aug-10 09:31N 37°52' E 023°30'0 0.1
2017-Aug-10 09:01N 37°52' E 023°30'0 0.0
2017-Aug-10 08:31N 37°52' E 023°30'0 0.0
2017-Aug-10 08:01N 37°52' E 023°30'1 1.7
2017-Aug-10 07:31N 37°53' E 023°31'4 8.0
2017-Aug-10 07:00N 37°56' E 023°34'2 4.2
2017-Aug-10 06:31N 37°58' E 023°35'0 0.0
2017-Aug-10 06:01N 37°58' E 023°35'0 0.0
2017-Aug-10 05:30N 37°58' E 023°35'1 1.9
2017-Aug-10 05:01N 37°57' E 023°33'3 6.8
2017-Aug-10 04:31N 38°01' E 023°34'1 2.0
2017-Aug-10 04:00N 38°01' E 023°35'0 0.0
2017-Aug-10 03:30N 38°01' E 023°35'0 0.0
2017-Aug-10 03:00N 38°01' E 023°35'0 0.0
2017-Aug-10 02:30N 38°01' E 023°35'1 1.5
2017-Aug-10 02:01N 38°02' E 023°36'0 0.2
2017-Aug-10 01:30N 38°02' E 023°36'0 0.0
2017-Aug-10 01:00N 38°02' E 023°36'0 0.0
2017-Aug-10 00:30N 38°02' E 023°36'0 0.0
2017-Aug-10 00:00N 38°02' E 023°36'0 0.0
2017-Aug-09 23:30N 38°02' E 023°36'0 0.0
2017-Aug-09 23:00N 38°02' E 023°36'0 0.0
2017-Aug-09 22:30N 38°02' E 023°36'1 1.1
2017-Aug-09 22:00N 38°02' E 023°35'0 0.2
2017-Aug-09 21:30N 38°02' E 023°35'0 0.0
2017-Aug-09 21:00N 38°02' E 023°35'0 0.0
2017-Aug-09 20:31N 38°02' E 023°35'0 0.0
2017-Aug-09 20:00N 38°02' E 023°35'0 0.0
2017-Aug-09 19:30N 38°02' E 023°35'0 0.0
2017-Aug-09 19:01N 38°02' E 023°35'0 0.0
2017-Aug-09 18:30N 38°02' E 023°35'0 0.0
2017-Aug-09 18:01N 38°02' E 023°35'0 0.0
2017-Aug-09 17:30N 38°02' E 023°35'0 0.0
2017-Aug-09 17:00N 38°02' E 023°35'0 0.0
2017-Aug-09 16:30N 38°02' E 023°35'0 0.0
2017-Aug-09 16:00N 38°02' E 023°35'0 0.0
2017-Aug-09 15:29N 38°02' E 023°35'0 0.0
2017-Aug-09 14:59N 38°02' E 023°35'0 0.0
2017-Aug-09 14:30N 38°02' E 023°35'0 0.0
2017-Aug-09 14:00N 38°02' E 023°35'0 0.0
2017-Aug-09 13:30N 38°02' E 023°35'0 0.0
2017-Aug-09 13:00N 38°02' E 023°35'0 0.0
2017-Aug-09 12:30N 38°02' E 023°35'0 0.0
2017-Aug-09 12:00N 38°02' E 023°35'0 0.0
2017-Aug-09 11:30N 38°02' E 023°35'1 2.9
2017-Aug-09 11:00N 38°01' E 023°34'3 6.6
2017-Aug-09 10:30N 37°57' E 023°33'1 2.0
2017-Aug-09 10:00N 37°58' E 023°35'0 0.0
2017-Aug-09 09:30N 37°58' E 023°35'0 0.0
2017-Aug-09 09:01N 37°58' E 023°35'0 0.0
2017-Aug-09 08:30N 37°58' E 023°35'0 0.0
2017-Aug-09 08:01N 37°58' E 023°35'0 0.0
2017-Aug-09 07:30N 37°58' E 023°35'0 0.0
2017-Aug-09 07:01N 37°58' E 023°35'0 0.0
2017-Aug-09 06:31N 37°58' E 023°35'0 0.0
2017-Aug-09 06:00N 37°58' E 023°35'0 0.1
2017-Aug-09 05:31N 37°58' E 023°35'  

Dump ship's entire track history